sensor_id;sensor_type;location;lat;lon;timestamp;P1;durP1;ratioP1;P2;durP2;ratioP2
9422;SDS011;65863;49.506;10.400;2022-12-07T00:00:01;8.57;;;6.50;;
9422;SDS011;65863;49.506;10.400;2022-12-07T00:02:45;7.83;;;6.43;;
9422;SDS011;65863;49.506;10.400;2022-12-07T00:05:29;7.40;;;6.03;;
9422;SDS011;65863;49.506;10.400;2022-12-07T00:08:13;7.70;;;6.47;;
9422;SDS011;65863;49.506;10.400;2022-12-07T00:11:17;7.03;;;6.33;;
9422;SDS011;65863;49.506;10.400;2022-12-07T00:14:05;8.57;;;6.33;;
9422;SDS011;65863;49.506;10.400;2022-12-07T00:16:51;7.60;;;6.77;;
9422;SDS011;65863;49.506;10.400;2022-12-07T00:19:36;8.33;;;6.53;;
9422;SDS011;65863;49.506;10.400;2022-12-07T00:22:20;8.27;;;6.30;;
9422;SDS011;65863;49.506;10.400;2022-12-07T00:25:04;8.20;;;6.50;;
9422;SDS011;65863;49.506;10.400;2022-12-07T00:27:48;8.93;;;6.93;;
9422;SDS011;65863;49.506;10.400;2022-12-07T00:30:32;8.20;;;6.63;;
9422;SDS011;65863;49.506;10.400;2022-12-07T00:33:16;8.63;;;7.00;;
9422;SDS011;65863;49.506;10.400;2022-12-07T00:36:00;11.97;;;6.80;;
9422;SDS011;65863;49.506;10.400;2022-12-07T00:38:46;7.90;;;6.87;;
9422;SDS011;65863;49.506;10.400;2022-12-07T00:41:31;9.70;;;7.63;;
9422;SDS011;65863;49.506;10.400;2022-12-07T00:44:15;8.47;;;7.50;;
9422;SDS011;65863;49.506;10.400;2022-12-07T00:46:59;10.77;;;7.57;;
9422;SDS011;65863;49.506;10.400;2022-12-07T00:49:43;9.53;;;7.23;;
9422;SDS011;65863;49.506;10.400;2022-12-07T00:52:27;10.00;;;7.87;;
9422;SDS011;65863;49.506;10.400;2022-12-07T00:55:11;8.50;;;7.60;;
9422;SDS011;65863;49.506;10.400;2022-12-07T00:57:55;9.57;;;7.50;;
9422;SDS011;65863;49.506;10.400;2022-12-07T01:00:40;8.27;;;7.30;;
9422;SDS011;65863;49.506;10.400;2022-12-07T01:03:25;7.77;;;6.97;;
9422;SDS011;65863;49.506;10.400;2022-12-07T01:06:09;9.23;;;7.37;;
9422;SDS011;65863;49.506;10.400;2022-12-07T01:08:57;8.87;;;7.60;;
9422;SDS011;65863;49.506;10.400;2022-12-07T01:11:41;8.47;;;7.37;;
9422;SDS011;65863;49.506;10.400;2022-12-07T01:14:25;8.20;;;7.03;;
9422;SDS011;65863;49.506;10.400;2022-12-07T01:17:09;8.77;;;7.73;;
9422;SDS011;65863;49.506;10.400;2022-12-07T01:19:53;8.90;;;7.37;;
9422;SDS011;65863;49.506;10.400;2022-12-07T01:22:38;10.73;;;7.83;;
9422;SDS011;65863;49.506;10.400;2022-12-07T01:25:23;9.33;;;7.73;;
9422;SDS011;65863;49.506;10.400;2022-12-07T01:28:07;10.50;;;7.87;;
9422;SDS011;65863;49.506;10.400;2022-12-07T01:30:58;10.63;;;7.80;;
9422;SDS011;65863;49.506;10.400;2022-12-07T01:33:49;9.93;;;7.43;;
9422;SDS011;65863;49.506;10.400;2022-12-07T01:36:36;9.27;;;7.53;;
9422;SDS011;65863;49.506;10.400;2022-12-07T01:39:20;10.77;;;8.00;;
9422;SDS011;65863;49.506;10.400;2022-12-07T01:42:07;10.30;;;7.70;;
9422;SDS011;65863;49.506;10.400;2022-12-07T01:48:02;11.83;;;9.17;;
9422;SDS011;65863;49.506;10.400;2022-12-07T01:50:48;10.63;;;8.50;;
9422;SDS011;65863;49.506;10.400;2022-12-07T01:53:36;11.73;;;8.50;;
9422;SDS011;65863;49.506;10.400;2022-12-07T01:56:24;11.90;;;8.60;;
9422;SDS011;65863;49.506;10.400;2022-12-07T01:59:10;10.73;;;8.17;;
9422;SDS011;65863;49.506;10.400;2022-12-07T02:01:54;11.67;;;8.53;;
9422;SDS011;65863;49.506;10.400;2022-12-07T02:04:39;14.47;;;9.63;;
9422;SDS011;65863;49.506;10.400;2022-12-07T02:07:23;13.07;;;9.60;;
9422;SDS011;65863;49.506;10.400;2022-12-07T02:10:14;13.43;;;10.00;;
9422;SDS011;65863;49.506;10.400;2022-12-07T02:13:06;13.80;;;9.37;;
9422;SDS011;65863;49.506;10.400;2022-12-07T02:38:25;12.73;;;9.67;;
9422;SDS011;65863;49.506;10.400;2022-12-07T02:41:44;15.00;;;11.50;;
9422;SDS011;65863;49.506;10.400;2022-12-07T02:44:33;16.17;;;11.47;;
9422;SDS011;65863;49.506;10.400;2022-12-07T02:47:18;14.30;;;10.53;;
9422;SDS011;65863;49.506;10.400;2022-12-07T02:50:05;14.50;;;11.30;;
9422;SDS011;65863;49.506;10.400;2022-12-07T02:52:50;17.07;;;11.83;;
9422;SDS011;65863;49.506;10.400;2022-12-07T02:55:37;14.90;;;10.80;;
9422;SDS011;65863;49.506;10.400;2022-12-07T03:01:42;15.33;;;10.83;;
9422;SDS011;65863;49.506;10.400;2022-12-07T03:04:50;17.73;;;11.67;;
9422;SDS011;65863;49.506;10.400;2022-12-07T03:13:49;16.67;;;11.27;;
9422;SDS011;65863;49.506;10.400;2022-12-07T03:16:41;16.97;;;11.03;;
9422;SDS011;65863;49.506;10.400;2022-12-07T03:19:31;16.57;;;12.07;;
9422;SDS011;65863;49.506;10.400;2022-12-07T03:22:17;15.77;;;11.90;;
9422;SDS011;65863;49.506;10.400;2022-12-07T03:25:04;14.40;;;11.17;;
9422;SDS011;65863;49.506;10.400;2022-12-07T03:30:53;16.17;;;11.50;;
9422;SDS011;65863;49.506;10.400;2022-12-07T03:36:35;15.30;;;11.33;;
9422;SDS011;65863;49.506;10.400;2022-12-07T03:42:15;17.93;;;11.70;;
9422;SDS011;65863;49.506;10.400;2022-12-07T03:45:00;16.90;;;12.23;;
9422;SDS011;65863;49.506;10.400;2022-12-07T03:47:51;15.27;;;12.07;;
9422;SDS011;65863;49.506;10.400;2022-12-07T03:50:50;17.23;;;12.10;;
9422;SDS011;65863;49.506;10.400;2022-12-07T03:53:44;16.03;;;11.73;;
9422;SDS011;65863;49.506;10.400;2022-12-07T03:56:35;18.93;;;13.57;;
9422;SDS011;65863;49.506;10.400;2022-12-07T03:59:20;19.23;;;13.33;;
9422;SDS011;65863;49.506;10.400;2022-12-07T04:02:06;17.27;;;12.80;;
9422;SDS011;65863;49.506;10.400;2022-12-07T04:04:50;15.83;;;12.40;;
9422;SDS011;65863;49.506;10.400;2022-12-07T04:07:34;17.63;;;12.77;;
9422;SDS011;65863;49.506;10.400;2022-12-07T04:10:18;18.50;;;12.33;;
9422;SDS011;65863;49.506;10.400;2022-12-07T04:13:02;17.53;;;13.23;;
9422;SDS011;65863;49.506;10.400;2022-12-07T04:15:47;15.87;;;12.73;;
9422;SDS011;65863;49.506;10.400;2022-12-07T04:18:30;17.27;;;12.27;;
9422;SDS011;65863;49.506;10.400;2022-12-07T04:21:15;18.33;;;13.67;;
9422;SDS011;65863;49.506;10.400;2022-12-07T04:23:59;19.40;;;13.60;;
9422;SDS011;65863;49.506;10.400;2022-12-07T04:26:43;18.53;;;13.20;;
9422;SDS011;65863;49.506;10.400;2022-12-07T04:29:28;15.67;;;12.83;;
9422;SDS011;65863;49.506;10.400;2022-12-07T04:32:12;20.00;;;13.97;;
9422;SDS011;65863;49.506;10.400;2022-12-07T04:34:55;23.87;;;13.57;;
9422;SDS011;65863;49.506;10.400;2022-12-07T04:37:39;17.30;;;13.53;;
9422;SDS011;65863;49.506;10.400;2022-12-07T04:40:23;19.30;;;13.67;;
9422;SDS011;65863;49.506;10.400;2022-12-07T04:43:07;21.87;;;14.10;;
9422;SDS011;65863;49.506;10.400;2022-12-07T04:45:51;19.17;;;13.73;;
9422;SDS011;65863;49.506;10.400;2022-12-07T04:48:35;18.97;;;13.93;;
9422;SDS011;65863;49.506;10.400;2022-12-07T04:51:21;20.70;;;14.53;;
9422;SDS011;65863;49.506;10.400;2022-12-07T04:54:10;19.27;;;13.43;;
9422;SDS011;65863;49.506;10.400;2022-12-07T04:56:54;22.27;;;14.63;;
9422;SDS011;65863;49.506;10.400;2022-12-07T04:59:38;17.87;;;13.50;;
9422;SDS011;65863;49.506;10.400;2022-12-07T05:02:22;18.57;;;13.40;;
9422;SDS011;65863;49.506;10.400;2022-12-07T05:05:06;21.33;;;14.50;;
9422;SDS011;65863;49.506;10.400;2022-12-07T05:07:50;19.67;;;13.93;;
9422;SDS011;65863;49.506;10.400;2022-12-07T05:10:34;17.37;;;13.40;;
9422;SDS011;65863;49.506;10.400;2022-12-07T05:13:18;20.73;;;15.27;;
9422;SDS011;65863;49.506;10.400;2022-12-07T05:16:02;21.30;;;15.17;;
9422;SDS011;65863;49.506;10.400;2022-12-07T05:18:46;19.73;;;14.07;;
9422;SDS011;65863;49.506;10.400;2022-12-07T05:21:30;21.83;;;14.87;;
9422;SDS011;65863;49.506;10.400;2022-12-07T05:24:15;19.77;;;14.30;;
9422;SDS011;65863;49.506;10.400;2022-12-07T05:27:00;25.33;;;15.03;;
9422;SDS011;65863;49.506;10.400;2022-12-07T05:29:44;21.20;;;15.73;;
9422;SDS011;65863;49.506;10.400;2022-12-07T05:32:28;20.17;;;14.20;;
9422;SDS011;65863;49.506;10.400;2022-12-07T05:35:12;19.07;;;13.90;;
9422;SDS011;65863;49.506;10.400;2022-12-07T05:37:56;20.60;;;15.03;;
9422;SDS011;65863;49.506;10.400;2022-12-07T05:40:41;22.30;;;15.17;;
9422;SDS011;65863;49.506;10.400;2022-12-07T05:43:24;21.17;;;15.00;;
9422;SDS011;65863;49.506;10.400;2022-12-07T05:46:08;20.93;;;14.73;;
9422;SDS011;65863;49.506;10.400;2022-12-07T05:48:52;22.50;;;14.43;;
9422;SDS011;65863;49.506;10.400;2022-12-07T05:51:36;21.30;;;14.17;;
9422;SDS011;65863;49.506;10.400;2022-12-07T05:54:20;20.60;;;13.90;;
9422;SDS011;65863;49.506;10.400;2022-12-07T05:57:04;23.70;;;15.00;;
9422;SDS011;65863;49.506;10.400;2022-12-07T05:59:48;22.27;;;14.60;;
9422;SDS011;65863;49.506;10.400;2022-12-07T06:02:32;22.10;;;15.83;;
9422;SDS011;65863;49.506;10.400;2022-12-07T06:05:16;18.27;;;13.47;;
9422;SDS011;65863;49.506;10.400;2022-12-07T06:08:01;24.73;;;14.83;;
9422;SDS011;65863;49.506;10.400;2022-12-07T06:10:46;20.70;;;15.13;;
9422;SDS011;65863;49.506;10.400;2022-12-07T06:13:50;22.87;;;15.53;;
9422;SDS011;65863;49.506;10.400;2022-12-07T06:16:34;22.73;;;14.20;;
9422;SDS011;65863;49.506;10.400;2022-12-07T06:19:18;22.53;;;14.63;;
9422;SDS011;65863;49.506;10.400;2022-12-07T06:22:03;21.47;;;13.87;;
9422;SDS011;65863;49.506;10.400;2022-12-07T06:24:48;22.47;;;14.50;;
9422;SDS011;65863;49.506;10.400;2022-12-07T06:27:31;21.93;;;15.53;;
9422;SDS011;65863;49.506;10.400;2022-12-07T06:30:17;21.70;;;14.67;;
9422;SDS011;65863;49.506;10.400;2022-12-07T06:33:01;23.60;;;15.63;;
9422;SDS011;65863;49.506;10.400;2022-12-07T06:35:45;21.07;;;14.77;;
9422;SDS011;65863;49.506;10.400;2022-12-07T06:38:29;23.23;;;15.80;;
9422;SDS011;65863;49.506;10.400;2022-12-07T06:41:13;26.63;;;16.20;;
9422;SDS011;65863;49.506;10.400;2022-12-07T06:43:57;23.47;;;15.10;;
9422;SDS011;65863;49.506;10.400;2022-12-07T06:46:41;24.90;;;15.50;;
9422;SDS011;65863;49.506;10.400;2022-12-07T06:49:25;25.20;;;15.80;;
9422;SDS011;65863;49.506;10.400;2022-12-07T06:52:09;19.97;;;14.33;;
9422;SDS011;65863;49.506;10.400;2022-12-07T06:54:53;24.00;;;20.90;;
9422;SDS011;65863;49.506;10.400;2022-12-07T06:57:37;23.50;;;15.43;;
9422;SDS011;65863;49.506;10.400;2022-12-07T07:00:21;21.60;;;14.93;;
9422;SDS011;65863;49.506;10.400;2022-12-07T07:03:06;23.07;;;13.67;;
9422;SDS011;65863;49.506;10.400;2022-12-07T07:05:50;21.20;;;14.53;;
9422;SDS011;65863;49.506;10.400;2022-12-07T07:08:34;22.50;;;14.27;;
9422;SDS011;65863;49.506;10.400;2022-12-07T07:11:19;20.37;;;13.17;;
9422;SDS011;65863;49.506;10.400;2022-12-07T07:14:03;20.23;;;13.43;;
9422;SDS011;65863;49.506;10.400;2022-12-07T07:16:47;15.90;;;12.50;;
9422;SDS011;65863;49.506;10.400;2022-12-07T07:19:31;18.20;;;13.83;;
9422;SDS011;65863;49.506;10.400;2022-12-07T07:22:15;20.67;;;13.23;;
9422;SDS011;65863;49.506;10.400;2022-12-07T07:24:59;19.53;;;12.03;;
9422;SDS011;65863;49.506;10.400;2022-12-07T07:27:43;17.63;;;12.60;;
9422;SDS011;65863;49.506;10.400;2022-12-07T07:30:28;15.13;;;12.10;;
9422;SDS011;65863;49.506;10.400;2022-12-07T07:33:12;16.87;;;12.03;;
9422;SDS011;65863;49.506;10.400;2022-12-07T07:35:57;17.57;;;12.23;;
9422;SDS011;65863;49.506;10.400;2022-12-07T07:38:40;16.20;;;10.47;;
9422;SDS011;65863;49.506;10.400;2022-12-07T07:41:25;15.23;;;11.17;;
9422;SDS011;65863;49.506;10.400;2022-12-07T07:44:09;17.20;;;11.70;;
9422;SDS011;65863;49.506;10.400;2022-12-07T07:46:53;16.03;;;11.17;;
9422;SDS011;65863;49.506;10.400;2022-12-07T07:49:37;14.83;;;10.70;;
9422;SDS011;65863;49.506;10.400;2022-12-07T07:52:22;13.40;;;11.52;;
9422;SDS011;65863;49.506;10.400;2022-12-07T07:55:06;15.73;;;10.33;;
9422;SDS011;65863;49.506;10.400;2022-12-07T07:57:54;12.70;;;9.47;;
9422;SDS011;65863;49.506;10.400;2022-12-07T08:00:38;14.43;;;9.17;;
9422;SDS011;65863;49.506;10.400;2022-12-07T08:03:22;16.50;;;9.47;;
9422;SDS011;65863;49.506;10.400;2022-12-07T08:06:06;13.07;;;9.53;;
9422;SDS011;65863;49.506;10.400;2022-12-07T08:08:50;12.83;;;9.73;;
9422;SDS011;65863;49.506;10.400;2022-12-07T08:11:34;12.83;;;9.67;;
9422;SDS011;65863;49.506;10.400;2022-12-07T08:14:19;15.77;;;11.00;;
9422;SDS011;65863;49.506;10.400;2022-12-07T08:17:03;12.83;;;9.60;;
9422;SDS011;65863;49.506;10.400;2022-12-07T08:19:48;15.87;;;10.80;;
9422;SDS011;65863;49.506;10.400;2022-12-07T08:22:31;14.10;;;10.63;;
9422;SDS011;65863;49.506;10.400;2022-12-07T08:25:16;12.23;;;10.13;;
9422;SDS011;65863;49.506;10.400;2022-12-07T08:28:00;13.53;;;10.20;;
9422;SDS011;65863;49.506;10.400;2022-12-07T08:30:44;16.80;;;10.53;;
9422;SDS011;65863;49.506;10.400;2022-12-07T08:33:28;13.80;;;9.53;;
9422;SDS011;65863;49.506;10.400;2022-12-07T08:36:12;12.00;;;9.93;;
9422;SDS011;65863;49.506;10.400;2022-12-07T08:38:57;12.17;;;9.30;;
9422;SDS011;65863;49.506;10.400;2022-12-07T08:41:41;12.80;;;9.70;;
9422;SDS011;65863;49.506;10.400;2022-12-07T08:44:25;14.40;;;9.23;;
9422;SDS011;65863;49.506;10.400;2022-12-07T08:47:10;11.83;;;8.40;;
9422;SDS011;65863;49.506;10.400;2022-12-07T08:49:55;13.77;;;9.00;;
9422;SDS011;65863;49.506;10.400;2022-12-07T08:52:39;11.33;;;8.80;;
9422;SDS011;65863;49.506;10.400;2022-12-07T08:55:25;13.80;;;9.00;;
9422;SDS011;65863;49.506;10.400;2022-12-07T08:58:11;12.57;;;9.00;;
9422;SDS011;65863;49.506;10.400;2022-12-07T09:00:55;11.77;;;9.57;;
9422;SDS011;65863;49.506;10.400;2022-12-07T09:03:39;11.23;;;8.63;;
9422;SDS011;65863;49.506;10.400;2022-12-07T09:06:23;12.20;;;8.37;;
9422;SDS011;65863;49.506;10.400;2022-12-07T09:09:08;11.00;;;8.67;;
9422;SDS011;65863;49.506;10.400;2022-12-07T09:11:53;10.77;;;8.20;;
9422;SDS011;65863;49.506;10.400;2022-12-07T09:14:37;10.73;;;8.63;;
9422;SDS011;65863;49.506;10.400;2022-12-07T09:17:21;10.03;;;8.27;;
9422;SDS011;65863;49.506;10.400;2022-12-07T09:20:05;10.53;;;8.10;;
9422;SDS011;65863;49.506;10.400;2022-12-07T09:22:50;11.17;;;9.03;;
9422;SDS011;65863;49.506;10.400;2022-12-07T09:25:34;9.13;;;7.90;;
9422;SDS011;65863;49.506;10.400;2022-12-07T09:28:18;9.50;;;8.00;;
9422;SDS011;65863;49.506;10.400;2022-12-07T09:31:03;10.07;;;8.03;;
9422;SDS011;65863;49.506;10.400;2022-12-07T09:33:52;10.60;;;8.50;;
9422;SDS011;65863;49.506;10.400;2022-12-07T09:36:40;9.50;;;8.33;;
9422;SDS011;65863;49.506;10.400;2022-12-07T09:39:24;9.60;;;8.20;;
9422;SDS011;65863;49.506;10.400;2022-12-07T09:42:08;10.83;;;8.73;;
9422;SDS011;65863;49.506;10.400;2022-12-07T09:45:01;10.70;;;8.30;;
9422;SDS011;65863;49.506;10.400;2022-12-07T09:47:48;10.93;;;8.70;;
9422;SDS011;65863;49.506;10.400;2022-12-07T09:50:32;11.77;;;9.37;;
9422;SDS011;65863;49.506;10.400;2022-12-07T09:53:19;12.30;;;8.90;;
9422;SDS011;65863;49.506;10.400;2022-12-07T09:56:09;12.33;;;9.40;;
9422;SDS011;65863;49.506;10.400;2022-12-07T09:59:00;13.20;;;10.00;;
9422;SDS011;65863;49.506;10.400;2022-12-07T10:01:47;10.30;;;8.63;;
9422;SDS011;65863;49.506;10.400;2022-12-07T10:04:32;14.73;;;9.40;;
9422;SDS011;65863;49.506;10.400;2022-12-07T10:07:16;10.30;;;8.87;;
9422;SDS011;65863;49.506;10.400;2022-12-07T10:10:02;11.17;;;9.37;;
9422;SDS011;65863;49.506;10.400;2022-12-07T10:13:01;10.80;;;8.57;;
9422;SDS011;65863;49.506;10.400;2022-12-07T10:18:40;12.60;;;9.50;;
9422;SDS011;65863;49.506;10.400;2022-12-07T10:21:26;12.30;;;9.47;;
9422;SDS011;65863;49.506;10.400;2022-12-07T10:26:54;11.63;;;9.13;;
9422;SDS011;65863;49.506;10.400;2022-12-07T10:29:39;14.20;;;9.17;;
9422;SDS011;65863;49.506;10.400;2022-12-07T10:32:30;10.70;;;8.43;;
9422;SDS011;65863;49.506;10.400;2022-12-07T10:35:28;11.30;;;9.40;;
9422;SDS011;65863;49.506;10.400;2022-12-07T10:38:16;13.50;;;9.53;;
9422;SDS011;65863;49.506;10.400;2022-12-07T10:41:05;10.63;;;8.60;;
9422;SDS011;65863;49.506;10.400;2022-12-07T10:43:51;11.40;;;8.97;;
9422;SDS011;65863;49.506;10.400;2022-12-07T10:52:33;12.33;;;9.73;;
9422;SDS011;65863;49.506;10.400;2022-12-07T10:55:56;12.33;;;9.30;;
9422;SDS011;65863;49.506;10.400;2022-12-07T11:14:02;10.47;;;8.40;;
9422;SDS011;65863;49.506;10.400;2022-12-07T11:19:59;11.70;;;9.20;;
9422;SDS011;65863;49.506;10.400;2022-12-07T11:25:38;11.03;;;9.33;;
9422;SDS011;65863;49.506;10.400;2022-12-07T11:31:22;14.07;;;9.70;;
9422;SDS011;65863;49.506;10.400;2022-12-07T11:37:38;11.63;;;9.07;;
9422;SDS011;65863;49.506;10.400;2022-12-07T11:40:26;11.17;;;9.23;;
9422;SDS011;65863;49.506;10.400;2022-12-07T11:43:21;11.13;;;9.40;;
9422;SDS011;65863;49.506;10.400;2022-12-07T11:46:11;11.90;;;9.53;;
9422;SDS011;65863;49.506;10.400;2022-12-07T11:49:03;12.17;;;8.57;;
9422;SDS011;65863;49.506;10.400;2022-12-07T11:51:54;14.73;;;9.53;;
9422;SDS011;65863;49.506;10.400;2022-12-07T11:54:45;12.60;;;9.80;;
9422;SDS011;65863;49.506;10.400;2022-12-07T11:57:37;11.10;;;9.53;;
9422;SDS011;65863;49.506;10.400;2022-12-07T12:00:28;11.57;;;9.03;;
9422;SDS011;65863;49.506;10.400;2022-12-07T12:03:14;12.77;;;8.93;;
9422;SDS011;65863;49.506;10.400;2022-12-07T12:06:04;11.97;;;9.77;;
9422;SDS011;65863;49.506;10.400;2022-12-07T12:15:23;9.73;;;8.53;;
9422;SDS011;65863;49.506;10.400;2022-12-07T12:21:06;9.63;;;8.60;;
9422;SDS011;65863;49.506;10.400;2022-12-07T12:23:58;9.40;;;8.40;;
9422;SDS011;65863;49.506;10.400;2022-12-07T12:26:50;11.33;;;8.53;;
9422;SDS011;65863;49.506;10.400;2022-12-07T12:29:39;13.07;;;9.43;;
9422;SDS011;65863;49.506;10.400;2022-12-07T12:53:25;9.30;;;8.00;;
9422;SDS011;65863;49.506;10.400;2022-12-07T12:56:20;9.73;;;7.50;;
9422;SDS011;65863;49.506;10.400;2022-12-07T13:02:16;11.93;;;8.83;;
9422;SDS011;65863;49.506;10.400;2022-12-07T13:08:00;11.17;;;8.73;;
9422;SDS011;65863;49.506;10.400;2022-12-07T13:10:47;10.10;;;8.53;;
9422;SDS011;65863;49.506;10.400;2022-12-07T13:13:31;11.53;;;8.77;;
9422;SDS011;65863;49.506;10.400;2022-12-07T13:19:01;14.77;;;9.60;;
9422;SDS011;65863;49.506;10.400;2022-12-07T13:21:45;11.73;;;9.27;;
9422;SDS011;65863;49.506;10.400;2022-12-07T13:24:29;10.83;;;9.17;;
9422;SDS011;65863;49.506;10.400;2022-12-07T13:27:15;10.87;;;8.73;;
9422;SDS011;65863;49.506;10.400;2022-12-07T13:29:59;11.30;;;9.30;;
9422;SDS011;65863;49.506;10.400;2022-12-07T13:32:43;11.13;;;8.53;;
9422;SDS011;65863;49.506;10.400;2022-12-07T13:35:36;11.17;;;8.63;;
9422;SDS011;65863;49.506;10.400;2022-12-07T13:41:15;9.37;;;8.17;;
9422;SDS011;65863;49.506;10.400;2022-12-07T13:44:11;11.60;;;8.90;;
9422;SDS011;65863;49.506;10.400;2022-12-07T13:46:57;10.93;;;9.07;;
9422;SDS011;65863;49.506;10.400;2022-12-07T13:49:50;9.60;;;8.27;;
9422;SDS011;65863;49.506;10.400;2022-12-07T13:52:39;12.80;;;8.73;;
9422;SDS011;65863;49.506;10.400;2022-12-07T13:55:28;11.83;;;9.17;;
9422;SDS011;65863;49.506;10.400;2022-12-07T13:58:13;10.70;;;8.83;;
9422;SDS011;65863;49.506;10.400;2022-12-07T14:00:57;10.33;;;7.73;;
9422;SDS011;65863;49.506;10.400;2022-12-07T14:03:42;12.17;;;8.60;;
9422;SDS011;65863;49.506;10.400;2022-12-07T14:06:26;11.70;;;9.17;;
9422;SDS011;65863;49.506;10.400;2022-12-07T14:09:22;10.73;;;8.43;;
9422;SDS011;65863;49.506;10.400;2022-12-07T14:12:07;12.00;;;8.77;;
9422;SDS011;65863;49.506;10.400;2022-12-07T14:14:51;10.73;;;7.67;;
9422;SDS011;65863;49.506;10.400;2022-12-07T14:17:36;10.80;;;8.70;;
9422;SDS011;65863;49.506;10.400;2022-12-07T14:20:38;11.90;;;8.03;;
9422;SDS011;65863;49.506;10.400;2022-12-07T14:23:24;11.63;;;7.97;;
9422;SDS011;65863;49.506;10.400;2022-12-07T14:26:18;12.47;;;8.20;;
9422;SDS011;65863;49.506;10.400;2022-12-07T14:29:20;11.80;;;8.87;;
9422;SDS011;65863;49.506;10.400;2022-12-07T14:32:27;11.00;;;8.13;;
9422;SDS011;65863;49.506;10.400;2022-12-07T14:35:12;10.57;;;8.30;;
9422;SDS011;65863;49.506;10.400;2022-12-07T14:37:57;13.17;;;7.93;;
9422;SDS011;65863;49.506;10.400;2022-12-07T14:40:41;10.93;;;8.27;;
9422;SDS011;65863;49.506;10.400;2022-12-07T14:43:25;11.60;;;8.53;;
9422;SDS011;65863;49.506;10.400;2022-12-07T14:46:09;12.17;;;8.40;;
9422;SDS011;65863;49.506;10.400;2022-12-07T14:48:53;10.03;;;8.23;;
9422;SDS011;65863;49.506;10.400;2022-12-07T14:51:38;11.80;;;7.67;;
9422;SDS011;65863;49.506;10.400;2022-12-07T14:54:23;11.37;;;8.50;;
9422;SDS011;65863;49.506;10.400;2022-12-07T14:57:12;9.43;;;8.20;;
9422;SDS011;65863;49.506;10.400;2022-12-07T14:59:57;10.93;;;8.57;;
9422;SDS011;65863;49.506;10.400;2022-12-07T15:02:40;11.40;;;8.33;;
9422;SDS011;65863;49.506;10.400;2022-12-07T15:05:24;12.00;;;8.53;;
9422;SDS011;65863;49.506;10.400;2022-12-07T15:08:10;12.45;;;9.88;;
9422;SDS011;65863;49.506;10.400;2022-12-07T15:10:56;12.37;;;9.37;;
9422;SDS011;65863;49.506;10.400;2022-12-07T15:13:40;12.03;;;9.10;;
9422;SDS011;65863;49.506;10.400;2022-12-07T15:16:43;12.67;;;9.10;;
9422;SDS011;65863;49.506;10.400;2022-12-07T15:19:27;14.60;;;9.67;;
9422;SDS011;65863;49.506;10.400;2022-12-07T15:22:11;11.73;;;8.80;;
9422;SDS011;65863;49.506;10.400;2022-12-07T15:24:55;13.20;;;9.53;;
9422;SDS011;65863;49.506;10.400;2022-12-07T15:27:39;11.57;;;9.60;;
9422;SDS011;65863;49.506;10.400;2022-12-07T15:30:23;12.80;;;9.13;;
9422;SDS011;65863;49.506;10.400;2022-12-07T15:33:07;12.37;;;9.70;;
9422;SDS011;65863;49.506;10.400;2022-12-07T15:35:52;16.77;;;10.33;;
9422;SDS011;65863;49.506;10.400;2022-12-07T15:38:36;11.70;;;9.97;;
9422;SDS011;65863;49.506;10.400;2022-12-07T15:41:20;12.33;;;10.50;;
9422;SDS011;65863;49.506;10.400;2022-12-07T15:44:04;15.57;;;10.17;;
9422;SDS011;65863;49.506;10.400;2022-12-07T15:47:07;13.60;;;10.60;;
9422;SDS011;65863;49.506;10.400;2022-12-07T15:49:51;15.07;;;10.67;;
9422;SDS011;65863;49.506;10.400;2022-12-07T15:52:35;12.20;;;9.20;;
9422;SDS011;65863;49.506;10.400;2022-12-07T15:55:19;14.20;;;10.67;;
9422;SDS011;65863;49.506;10.400;2022-12-07T15:58:03;15.37;;;10.37;;
9422;SDS011;65863;49.506;10.400;2022-12-07T16:00:47;14.77;;;11.23;;
9422;SDS011;65863;49.506;10.400;2022-12-07T16:03:32;14.30;;;10.00;;
9422;SDS011;65863;49.506;10.400;2022-12-07T16:06:16;17.03;;;10.43;;
9422;SDS011;65863;49.506;10.400;2022-12-07T16:09:02;11.90;;;9.77;;
9422;SDS011;65863;49.506;10.400;2022-12-07T16:11:46;17.07;;;10.20;;
9422;SDS011;65863;49.506;10.400;2022-12-07T16:14:31;12.83;;;10.20;;
9422;SDS011;65863;49.506;10.400;2022-12-07T16:17:16;15.53;;;12.53;;
9422;SDS011;65863;49.506;10.400;2022-12-07T16:20:00;13.53;;;11.23;;
9422;SDS011;65863;49.506;10.400;2022-12-07T16:22:45;14.67;;;11.20;;
9422;SDS011;65863;49.506;10.400;2022-12-07T16:25:29;15.53;;;11.97;;
9422;SDS011;65863;49.506;10.400;2022-12-07T16:28:13;19.37;;;13.83;;
9422;SDS011;65863;49.506;10.400;2022-12-07T16:31:04;14.00;;;10.90;;
9422;SDS011;65863;49.506;10.400;2022-12-07T16:33:52;17.73;;;12.10;;
9422;SDS011;65863;49.506;10.400;2022-12-07T16:36:38;16.40;;;11.63;;
9422;SDS011;65863;49.506;10.400;2022-12-07T16:39:22;15.07;;;11.57;;
9422;SDS011;65863;49.506;10.400;2022-12-07T16:42:06;15.80;;;10.87;;
9422;SDS011;65863;49.506;10.400;2022-12-07T16:44:49;14.30;;;10.90;;
9422;SDS011;65863;49.506;10.400;2022-12-07T16:47:36;20.10;;;14.60;;
9422;SDS011;65863;49.506;10.400;2022-12-07T16:50:21;15.43;;;12.33;;
9422;SDS011;65863;49.506;10.400;2022-12-07T16:53:05;16.17;;;11.97;;
9422;SDS011;65863;49.506;10.400;2022-12-07T16:55:50;15.03;;;11.47;;
9422;SDS011;65863;49.506;10.400;2022-12-07T16:58:35;14.77;;;11.83;;
9422;SDS011;65863;49.506;10.400;2022-12-07T17:01:20;16.30;;;12.73;;
9422;SDS011;65863;49.506;10.400;2022-12-07T17:04:06;21.03;;;14.73;;
9422;SDS011;65863;49.506;10.400;2022-12-07T17:06:50;18.67;;;13.00;;
9422;SDS011;65863;49.506;10.400;2022-12-07T17:09:34;18.37;;;12.77;;
9422;SDS011;65863;49.506;10.400;2022-12-07T17:12:19;16.77;;;13.47;;
9422;SDS011;65863;49.506;10.400;2022-12-07T17:15:03;19.10;;;12.83;;
9422;SDS011;65863;49.506;10.400;2022-12-07T17:18:04;16.00;;;12.47;;
9422;SDS011;65863;49.506;10.400;2022-12-07T17:20:48;19.20;;;12.53;;
9422;SDS011;65863;49.506;10.400;2022-12-07T17:23:33;17.90;;;12.50;;
9422;SDS011;65863;49.506;10.400;2022-12-07T17:26:19;20.60;;;12.33;;
9422;SDS011;65863;49.506;10.400;2022-12-07T17:29:07;16.53;;;11.57;;
9422;SDS011;65863;49.506;10.400;2022-12-07T17:31:52;16.07;;;12.70;;
9422;SDS011;65863;49.506;10.400;2022-12-07T17:34:36;16.27;;;12.53;;
9422;SDS011;65863;49.506;10.400;2022-12-07T17:37:20;15.87;;;11.30;;
9422;SDS011;65863;49.506;10.400;2022-12-07T17:40:04;14.57;;;11.40;;
9422;SDS011;65863;49.506;10.400;2022-12-07T17:42:48;19.60;;;11.83;;
9422;SDS011;65863;49.506;10.400;2022-12-07T17:45:35;12.53;;;10.57;;
9422;SDS011;65863;49.506;10.400;2022-12-07T17:48:20;16.30;;;11.97;;
9422;SDS011;65863;49.506;10.400;2022-12-07T17:52:38;14.20;;;11.20;;
9422;SDS011;65863;49.506;10.400;2022-12-07T17:55:42;14.27;;;11.50;;
9422;SDS011;65863;49.506;10.400;2022-12-07T17:58:26;16.97;;;11.57;;
9422;SDS011;65863;49.506;10.400;2022-12-07T18:01:10;15.30;;;11.87;;
9422;SDS011;65863;49.506;10.400;2022-12-07T18:03:54;14.10;;;11.30;;
9422;SDS011;65863;49.506;10.400;2022-12-07T18:06:38;14.57;;;11.57;;
9422;SDS011;65863;49.506;10.400;2022-12-07T18:09:23;16.30;;;11.33;;
9422;SDS011;65863;49.506;10.400;2022-12-07T18:12:07;16.73;;;11.17;;
9422;SDS011;65863;49.506;10.400;2022-12-07T18:14:51;13.87;;;10.90;;
9422;SDS011;65863;49.506;10.400;2022-12-07T18:17:37;13.67;;;10.50;;
9422;SDS011;65863;49.506;10.400;2022-12-07T18:20:21;17.23;;;11.47;;
9422;SDS011;65863;49.506;10.400;2022-12-07T18:23:14;14.27;;;10.37;;
9422;SDS011;65863;49.506;10.400;2022-12-07T18:26:02;11.93;;;10.63;;